sensor_id;sensor_type;location;lat;lon;timestamp;temperature;humidity
60309;DHT22;50313;52.894;6.492;2023-11-21T00:02:16;8.80;99.90
60309;DHT22;50313;52.894;6.492;2023-11-21T00:04:41;8.80;99.90
60309;DHT22;50313;52.894;6.492;2023-11-21T00:07:07;8.80;99.90
60309;DHT22;50313;52.894;6.492;2023-11-21T00:09:33;8.80;99.90
60309;DHT22;50313;52.894;6.492;2023-11-21T00:11:59;8.80;99.90
60309;DHT22;50313;52.894;6.492;2023-11-21T00:14:27;8.80;99.90
60309;DHT22;50313;52.894;6.492;2023-11-21T00:16:53;8.70;99.90
60309;DHT22;50313;52.894;6.492;2023-11-21T00:19:19;8.80;99.90
60309;DHT22;50313;52.894;6.492;2023-11-21T00:21:45;8.70;99.90
60309;DHT22;50313;52.894;6.492;2023-11-21T00:24:12;8.80;99.90
60309;DHT22;50313;52.894;6.492;2023-11-21T00:26:40;8.70;99.90
60309;DHT22;50313;52.894;6.492;2023-11-21T00:29:05;8.80;99.90
60309;DHT22;50313;52.894;6.492;2023-11-21T00:31:34;8.70;99.90
60309;DHT22;50313;52.894;6.492;2023-11-21T00:34:03;8.70;99.90
60309;DHT22;50313;52.894;6.492;2023-11-21T00:36:33;8.80;99.90
60309;DHT22;50313;52.894;6.492;2023-11-21T00:38:59;8.80;99.90
60309;DHT22;50313;52.894;6.492;2023-11-21T00:41:25;8.80;99.90
60309;DHT22;50313;52.894;6.492;2023-11-21T00:43:54;8.80;99.90
60309;DHT22;50313;52.894;6.492;2023-11-21T00:46:21;8.80;99.90
60309;DHT22;50313;52.894;6.492;2023-11-21T00:48:46;8.80;99.90
60309;DHT22;50313;52.894;6.492;2023-11-21T00:51:12;8.80;99.90
60309;DHT22;50313;52.894;6.492;2023-11-21T00:53:38;8.80;99.90
60309;DHT22;50313;52.894;6.492;2023-11-21T00:56:05;8.80;99.90
60309;DHT22;50313;52.894;6.492;2023-11-21T00:58:31;8.80;99.90
60309;DHT22;50313;52.894;6.492;2023-11-21T01:00:56;8.80;99.90
60309;DHT22;50313;52.894;6.492;2023-11-21T01:03:23;8.80;99.90
60309;DHT22;50313;52.894;6.492;2023-11-21T01:05:48;8.80;99.90
60309;DHT22;50313;52.894;6.492;2023-11-21T01:08:16;8.80;99.90
60309;DHT22;50313;52.894;6.492;2023-11-21T01:10:41;8.90;99.90
60309;DHT22;50313;52.894;6.492;2023-11-21T01:13:07;8.90;99.90
60309;DHT22;50313;52.894;6.492;2023-11-21T01:15:36;8.80;99.90
60309;DHT22;50313;52.894;6.492;2023-11-21T01:18:02;8.90;99.90
60309;DHT22;50313;52.894;6.492;2023-11-21T01:20:29;8.80;99.90
60309;DHT22;50313;52.894;6.492;2023-11-21T01:22:54;8.90;99.90
60309;DHT22;50313;52.894;6.492;2023-11-21T01:25:21;8.90;99.90
60309;DHT22;50313;52.894;6.492;2023-11-21T01:27:46;8.80;99.90
60309;DHT22;50313;52.894;6.492;2023-11-21T01:30:13;8.80;99.90
60309;DHT22;50313;52.894;6.492;2023-11-21T01:32:39;8.80;99.90
60309;DHT22;50313;52.894;6.492;2023-11-21T01:35:06;8.90;99.90
60309;DHT22;50313;52.894;6.492;2023-11-21T01:37:32;8.90;99.90
60309;DHT22;50313;52.894;6.492;2023-11-21T01:39:59;8.90;99.90
60309;DHT22;50313;52.894;6.492;2023-11-21T01:42:26;8.90;99.90
60309;DHT22;50313;52.894;6.492;2023-11-21T01:44:52;9.00;99.90
60309;DHT22;50313;52.894;6.492;2023-11-21T01:47:19;8.90;99.90
60309;DHT22;50313;52.894;6.492;2023-11-21T01:49:47;8.90;99.90
60309;DHT22;50313;52.894;6.492;2023-11-21T01:52:13;8.90;99.90
60309;DHT22;50313;52.894;6.492;2023-11-21T01:54:41;8.90;99.90
60309;DHT22;50313;52.894;6.492;2023-11-21T01:57:08;8.90;99.90
60309;DHT22;50313;52.894;6.492;2023-11-21T01:59:37;8.90;99.90
60309;DHT22;50313;52.894;6.492;2023-11-21T02:02:06;8.90;99.90
60309;DHT22;50313;52.894;6.492;2023-11-21T02:04:33;8.90;99.90
60309;DHT22;50313;52.894;6.492;2023-11-21T02:07:00;8.90;99.90
60309;DHT22;50313;52.894;6.492;2023-11-21T02:09:27;8.90;99.90
60309;DHT22;50313;52.894;6.492;2023-11-21T02:11:53;8.90;99.90
60309;DHT22;50313;52.894;6.492;2023-11-21T02:14:27;9.00;99.90
60309;DHT22;50313;52.894;6.492;2023-11-21T02:16:54;8.90;99.90
60309;DHT22;50313;52.894;6.492;2023-11-21T02:19:22;8.90;99.90
60309;DHT22;50313;52.894;6.492;2023-11-21T02:21:56;8.90;99.90
60309;DHT22;50313;52.894;6.492;2023-11-21T02:24:26;8.90;99.90
60309;DHT22;50313;52.894;6.492;2023-11-21T02:26:52;8.90;99.90
60309;DHT22;50313;52.894;6.492;2023-11-21T02:29:19;8.90;99.90
60309;DHT22;50313;52.894;6.492;2023-11-21T02:31:48;9.00;99.90
60309;DHT22;50313;52.894;6.492;2023-11-21T02:34:17;9.00;99.90
60309;DHT22;50313;52.894;6.492;2023-11-21T02:36:44;8.90;99.90
60309;DHT22;50313;52.894;6.492;2023-11-21T02:39:10;8.90;99.90
60309;DHT22;50313;52.894;6.492;2023-11-21T02:41:39;9.00;99.90
60309;DHT22;50313;52.894;6.492;2023-11-21T02:44:06;9.00;99.90
60309;DHT22;50313;52.894;6.492;2023-11-21T02:46:36;8.90;99.90
60309;DHT22;50313;52.894;6.492;2023-11-21T02:49:05;9.00;99.90
60309;DHT22;50313;52.894;6.492;2023-11-21T02:51:32;9.00;99.90
60309;DHT22;50313;52.894;6.492;2023-11-21T02:53:58;9.00;99.90
60309;DHT22;50313;52.894;6.492;2023-11-21T02:56:25;9.00;99.90
60309;DHT22;50313;52.894;6.492;2023-11-21T02:58:57;9.00;99.90
60309;DHT22;50313;52.894;6.492;2023-11-21T03:01:23;9.00;99.90
60309;DHT22;50313;52.894;6.492;2023-11-21T03:03:53;9.00;99.90
60309;DHT22;50313;52.894;6.492;2023-11-21T03:06:19;9.00;99.90
60309;DHT22;50313;52.894;6.492;2023-11-21T03:08:45;9.00;99.90
60309;DHT22;50313;52.894;6.492;2023-11-21T03:11:12;9.00;99.90
60309;DHT22;50313;52.894;6.492;2023-11-21T03:13:39;9.00;99.90
60309;DHT22;50313;52.894;6.492;2023-11-21T03:16:11;9.00;99.90
60309;DHT22;50313;52.894;6.492;2023-11-21T03:18:37;9.00;99.90
60309;DHT22;50313;52.894;6.492;2023-11-21T03:21:07;9.00;99.90
60309;DHT22;50313;52.894;6.492;2023-11-21T03:23:36;9.00;99.90
60309;DHT22;50313;52.894;6.492;2023-11-21T03:26:03;9.00;99.90
60309;DHT22;50313;52.894;6.492;2023-11-21T03:28:28;9.00;99.90
60309;DHT22;50313;52.894;6.492;2023-11-21T03:30:55;9.00;99.90
60309;DHT22;50313;52.894;6.492;2023-11-21T03:33:21;9.00;99.90
60309;DHT22;50313;52.894;6.492;2023-11-21T03:35:48;9.10;99.90
60309;DHT22;50313;52.894;6.492;2023-11-21T03:38:14;9.00;99.90
60309;DHT22;50313;52.894;6.492;2023-11-21T03:40:41;9.10;99.90
60309;DHT22;50313;52.894;6.492;2023-11-21T03:43:07;9.00;99.90
60309;DHT22;50313;52.894;6.492;2023-11-21T03:45:33;9.10;99.90
60309;DHT22;50313;52.894;6.492;2023-11-21T03:47:59;9.00;99.90
60309;DHT22;50313;52.894;6.492;2023-11-21T03:50:30;9.10;99.90
60309;DHT22;50313;52.894;6.492;2023-11-21T03:52:55;9.00;99.90
60309;DHT22;50313;52.894;6.492;2023-11-21T03:55:21;9.10;99.90
60309;DHT22;50313;52.894;6.492;2023-11-21T03:57:48;9.10;99.90
60309;DHT22;50313;52.894;6.492;2023-11-21T04:00:14;9.10;99.90
60309;DHT22;50313;52.894;6.492;2023-11-21T04:02:40;9.10;99.90
60309;DHT22;50313;52.894;6.492;2023-11-21T04:05:06;9.10;99.90
60309;DHT22;50313;52.894;6.492;2023-11-21T04:07:32;9.10;99.90
60309;DHT22;50313;52.894;6.492;2023-11-21T04:09:59;9.10;99.90
60309;DHT22;50313;52.894;6.492;2023-11-21T04:12:25;9.10;99.90
60309;DHT22;50313;52.894;6.492;2023-11-21T04:14:50;9.10;99.90
60309;DHT22;50313;52.894;6.492;2023-11-21T04:17:18;9.10;99.90
60309;DHT22;50313;52.894;6.492;2023-11-21T04:19:45;9.10;99.90
60309;DHT22;50313;52.894;6.492;2023-11-21T04:22:11;9.20;99.90
60309;DHT22;50313;52.894;6.492;2023-11-21T04:24:37;9.10;99.90
60309;DHT22;50313;52.894;6.492;2023-11-21T04:27:03;9.10;99.90
60309;DHT22;50313;52.894;6.492;2023-11-21T04:29:29;9.10;99.90
60309;DHT22;50313;52.894;6.492;2023-11-21T04:31:55;9.10;99.90
60309;DHT22;50313;52.894;6.492;2023-11-21T04:34:21;9.10;99.90
60309;DHT22;50313;52.894;6.492;2023-11-21T04:36:46;9.10;99.90
60309;DHT22;50313;52.894;6.492;2023-11-21T04:39:12;9.10;99.90
60309;DHT22;50313;52.894;6.492;2023-11-21T04:41:38;9.10;99.90
60309;DHT22;50313;52.894;6.492;2023-11-21T04:44:06;9.10;99.90
60309;DHT22;50313;52.894;6.492;2023-11-21T04:46:32;9.10;99.90
60309;DHT22;50313;52.894;6.492;2023-11-21T04:48:58;9.00;99.90
60309;DHT22;50313;52.894;6.492;2023-11-21T04:51:24;9.10;99.90
60309;DHT22;50313;52.894;6.492;2023-11-21T04:53:49;9.10;99.90
60309;DHT22;50313;52.894;6.492;2023-11-21T04:56:15;9.10;99.90
60309;DHT22;50313;52.894;6.492;2023-11-21T04:58:44;9.10;99.90
60309;DHT22;50313;52.894;6.492;2023-11-21T05:01:09;9.00;99.90
60309;DHT22;50313;52.894;6.492;2023-11-21T05:03:35;9.00;99.90
60309;DHT22;50313;52.894;6.492;2023-11-21T05:06:01;9.10;99.90
60309;DHT22;50313;52.894;6.492;2023-11-21T05:08:27;9.10;99.90
60309;DHT22;50313;52.894;6.492;2023-11-21T05:10:53;9.10;99.90
60309;DHT22;50313;52.894;6.492;2023-11-21T05:13:19;9.10;99.90
60309;DHT22;50313;52.894;6.492;2023-11-21T05:15:45;9.10;99.90
60309;DHT22;50313;52.894;6.492;2023-11-21T05:18:11;9.00;99.90
60309;DHT22;50313;52.894;6.492;2023-11-21T05:20:39;9.10;99.90
60309;DHT22;50313;52.894;6.492;2023-11-21T05:23:06;9.10;99.90
60309;DHT22;50313;52.894;6.492;2023-11-21T05:25:33;9.10;99.90
60309;DHT22;50313;52.894;6.492;2023-11-21T05:27:59;9.10;99.90
60309;DHT22;50313;52.894;6.492;2023-11-21T05:30:27;9.10;99.90
60309;DHT22;50313;52.894;6.492;2023-11-21T05:32:52;9.10;99.90
60309;DHT22;50313;52.894;6.492;2023-11-21T05:35:18;9.10;99.90
60309;DHT22;50313;52.894;6.492;2023-11-21T05:37:45;9.10;99.90
60309;DHT22;50313;52.894;6.492;2023-11-21T05:40:11;9.10;99.90
60309;DHT22;50313;52.894;6.492;2023-11-21T05:42:39;9.10;99.90
60309;DHT22;50313;52.894;6.492;2023-11-21T05:45:07;9.10;99.90
60309;DHT22;50313;52.894;6.492;2023-11-21T05:47:45;9.00;99.90
60309;DHT22;50313;52.894;6.492;2023-11-21T05:50:13;9.10;99.90
60309;DHT22;50313;52.894;6.492;2023-11-21T05:52:44;9.10;99.90
60309;DHT22;50313;52.894;6.492;2023-11-21T05:55:10;9.00;99.90
60309;DHT22;50313;52.894;6.492;2023-11-21T05:57:36;9.10;99.90
60309;DHT22;50313;52.894;6.492;2023-11-21T06:00:07;9.10;99.90
60309;DHT22;50313;52.894;6.492;2023-11-21T06:02:40;9.10;99.90
60309;DHT22;50313;52.894;6.492;2023-11-21T06:05:09;9.20;99.90
60309;DHT22;50313;52.894;6.492;2023-11-21T06:07:36;9.10;99.90
60309;DHT22;50313;52.894;6.492;2023-11-21T06:10:03;9.10;99.90
60309;DHT22;50313;52.894;6.492;2023-11-21T06:12:33;9.20;99.90
60309;DHT22;50313;52.894;6.492;2023-11-21T06:15:04;9.20;99.90
60309;DHT22;50313;52.894;6.492;2023-11-21T06:17:31;9.10;99.90
60309;DHT22;50313;52.894;6.492;2023-11-21T06:19:57;9.10;99.90
60309;DHT22;50313;52.894;6.492;2023-11-21T06:22:23;9.10;99.90
60309;DHT22;50313;52.894;6.492;2023-11-21T06:24:49;9.20;99.90
60309;DHT22;50313;52.894;6.492;2023-11-21T06:27:14;9.20;99.90
60309;DHT22;50313;52.894;6.492;2023-11-21T06:29:41;9.10;99.90
60309;DHT22;50313;52.894;6.492;2023-11-21T06:32:08;9.10;99.90
60309;DHT22;50313;52.894;6.492;2023-11-21T06:34:34;9.20;99.90
60309;DHT22;50313;52.894;6.492;2023-11-21T06:36:59;9.20;99.90
60309;DHT22;50313;52.894;6.492;2023-11-21T06:39:25;9.20;99.90
60309;DHT22;50313;52.894;6.492;2023-11-21T06:41:51;9.10;99.90
60309;DHT22;50313;52.894;6.492;2023-11-21T06:44:17;9.20;99.90
60309;DHT22;50313;52.894;6.492;2023-11-21T06:46:42;9.20;99.90
60309;DHT22;50313;52.894;6.492;2023-11-21T06:49:08;9.20;99.90
60309;DHT22;50313;52.894;6.492;2023-11-21T06:51:34;9.10;99.90
60309;DHT22;50313;52.894;6.492;2023-11-21T06:54:00;9.10;99.90
60309;DHT22;50313;52.894;6.492;2023-11-21T06:56:26;9.20;99.90
60309;DHT22;50313;52.894;6.492;2023-11-21T06:58:51;9.20;99.90
60309;DHT22;50313;52.894;6.492;2023-11-21T07:01:20;9.20;99.90
60309;DHT22;50313;52.894;6.492;2023-11-21T07:03:45;9.10;99.90
60309;DHT22;50313;52.894;6.492;2023-11-21T07:06:11;9.10;99.90
60309;DHT22;50313;52.894;6.492;2023-11-21T07:08:37;9.20;99.90
60309;DHT22;50313;52.894;6.492;2023-11-21T07:11:06;9.20;99.90
60309;DHT22;50313;52.894;6.492;2023-11-21T07:13:32;9.20;99.90
60309;DHT22;50313;52.894;6.492;2023-11-21T07:15:59;9.10;99.90
60309;DHT22;50313;52.894;6.492;2023-11-21T07:18:25;9.20;99.90
60309;DHT22;50313;52.894;6.492;2023-11-21T07:20:50;9.10;99.90
60309;DHT22;50313;52.894;6.492;2023-11-21T07:23:18;9.10;99.90
60309;DHT22;50313;52.894;6.492;2023-11-21T07:25:44;9.10;99.90
60309;DHT22;50313;52.894;6.492;2023-11-21T07:28:10;9.10;99.90
60309;DHT22;50313;52.894;6.492;2023-11-21T07:30:35;9.10;99.90
60309;DHT22;50313;52.894;6.492;2023-11-21T07:33:01;9.20;99.90
60309;DHT22;50313;52.894;6.492;2023-11-21T07:35:27;9.10;99.90
60309;DHT22;50313;52.894;6.492;2023-11-21T07:37:52;9.10;99.90
60309;DHT22;50313;52.894;6.492;2023-11-21T07:40:18;9.10;99.90
60309;DHT22;50313;52.894;6.492;2023-11-21T07:42:44;9.10;99.90
60309;DHT22;50313;52.894;6.492;2023-11-21T07:45:10;9.10;99.90
60309;DHT22;50313;52.894;6.492;2023-11-21T07:47:36;9.20;99.90
60309;DHT22;50313;52.894;6.492;2023-11-21T07:50:05;9.20;99.90
60309;DHT22;50313;52.894;6.492;2023-11-21T07:52:32;9.20;99.90
60309;DHT22;50313;52.894;6.492;2023-11-21T07:54:59;9.20;99.90
60309;DHT22;50313;52.894;6.492;2023-11-21T07:57:24;9.20;99.90
60309;DHT22;50313;52.894;6.492;2023-11-21T07:59:51;9.20;99.90
60309;DHT22;50313;52.894;6.492;2023-11-21T08:02:19;9.20;99.90
60309;DHT22;50313;52.894;6.492;2023-11-21T08:04:45;9.20;99.90
60309;DHT22;50313;52.894;6.492;2023-11-21T08:07:10;9.30;99.90
60309;DHT22;50313;52.894;6.492;2023-11-21T08:09:36;9.20;99.90
60309;DHT22;50313;52.894;6.492;2023-11-21T08:12:02;9.30;99.90
60309;DHT22;50313;52.894;6.492;2023-11-21T08:14:28;9.30;99.90
60309;DHT22;50313;52.894;6.492;2023-11-21T08:16:54;9.20;99.90
60309;DHT22;50313;52.894;6.492;2023-11-21T08:19:23;9.30;99.90
60309;DHT22;50313;52.894;6.492;2023-11-21T08:21:50;9.30;99.90
60309;DHT22;50313;52.894;6.492;2023-11-21T08:24:16;9.30;99.90
60309;DHT22;50313;52.894;6.492;2023-11-21T08:26:42;9.30;99.90
60309;DHT22;50313;52.894;6.492;2023-11-21T08:29:08;9.40;99.90
60309;DHT22;50313;52.894;6.492;2023-11-21T08:31:34;9.30;99.90
60309;DHT22;50313;52.894;6.492;2023-11-21T08:34:00;9.30;99.90
60309;DHT22;50313;52.894;6.492;2023-11-21T08:36:28;9.30;99.90
60309;DHT22;50313;52.894;6.492;2023-11-21T08:38:53;9.30;99.90
60309;DHT22;50313;52.894;6.492;2023-11-21T08:41:20;9.20;99.90
60309;DHT22;50313;52.894;6.492;2023-11-21T08:43:49;9.20;99.90
60309;DHT22;50313;52.894;6.492;2023-11-21T08:46:15;9.20;99.90
60309;DHT22;50313;52.894;6.492;2023-11-21T08:48:43;9.20;99.90
60309;DHT22;50313;52.894;6.492;2023-11-21T08:51:10;9.20;99.90
60309;DHT22;50313;52.894;6.492;2023-11-21T08:53:37;9.20;99.90
60309;DHT22;50313;52.894;6.492;2023-11-21T08:56:03;9.10;99.90
60309;DHT22;50313;52.894;6.492;2023-11-21T08:58:31;9.10;99.90
60309;DHT22;50313;52.894;6.492;2023-11-21T09:00:57;9.10;99.90
60309;DHT22;50313;52.894;6.492;2023-11-21T09:03:23;9.10;99.90
60309;DHT22;50313;52.894;6.492;2023-11-21T09:05:50;9.10;99.90
60309;DHT22;50313;52.894;6.492;2023-11-21T09:08:16;9.10;99.90
60309;DHT22;50313;52.894;6.492;2023-11-21T09:10:41;9.00;99.90
60309;DHT22;50313;52.894;6.492;2023-11-21T09:13:08;9.00;99.90
60309;DHT22;50313;52.894;6.492;2023-11-21T09:15:35;9.00;99.90
60309;DHT22;50313;52.894;6.492;2023-11-21T09:18:01;9.00;99.90
60309;DHT22;50313;52.894;6.492;2023-11-21T09:20:27;8.90;99.90
60309;DHT22;50313;52.894;6.492;2023-11-21T09:22:54;8.90;99.90
60309;DHT22;50313;52.894;6.492;2023-11-21T09:25:21;8.90;99.90
60309;DHT22;50313;52.894;6.492;2023-11-21T09:27:46;8.80;99.90
60309;DHT22;50313;52.894;6.492;2023-11-21T09:30:12;8.80;99.90
60309;DHT22;50313;52.894;6.492;2023-11-21T09:32:40;8.80;99.90
60309;DHT22;50313;52.894;6.492;2023-11-21T09:35:06;8.80;99.90
60309;DHT22;50313;52.894;6.492;2023-11-21T09:37:34;8.80;99.90
60309;DHT22;50313;52.894;6.492;2023-11-21T09:40:01;8.80;99.90
60309;DHT22;50313;52.894;6.492;2023-11-21T09:42:38;8.80;99.90
60309;DHT22;50313;52.894;6.492;2023-11-21T09:45:31;8.80;99.90
60309;DHT22;50313;52.894;6.492;2023-11-21T09:47:59;8.80;99.90
60309;DHT22;50313;52.894;6.492;2023-11-21T09:50:26;8.80;99.90
60309;DHT22;50313;52.894;6.492;2023-11-21T09:55:27;8.80;99.90
60309;DHT22;50313;52.894;6.492;2023-11-21T09:57:57;8.80;99.90
60309;DHT22;50313;52.894;6.492;2023-11-21T10:00:23;8.80;99.90
60309;DHT22;50313;52.894;6.492;2023-11-21T10:02:49;8.80;99.90
60309;DHT22;50313;52.894;6.492;2023-11-21T10:05:16;8.80;99.90
60309;DHT22;50313;52.894;6.492;2023-11-21T10:07:46;8.80;99.90
60309;DHT22;50313;52.894;6.492;2023-11-21T10:10:13;8.80;99.90
60309;DHT22;50313;52.894;6.492;2023-11-21T10:12:40;8.80;99.90
60309;DHT22;50313;52.894;6.492;2023-11-21T10:15:08;8.80;99.90
60309;DHT22;50313;52.894;6.492;2023-11-21T10:17:36;8.80;99.90
60309;DHT22;50313;52.894;6.492;2023-11-21T10:20:11;8.80;99.90
60309;DHT22;50313;52.894;6.492;2023-11-21T10:22:41;8.90;99.90
60309;DHT22;50313;52.894;6.492;2023-11-21T10:25:08;8.80;99.90
60309;DHT22;50313;52.894;6.492;2023-11-21T10:27:35;8.80;99.90
60309;DHT22;50313;52.894;6.492;2023-11-21T10:30:04;8.80;99.90
60309;DHT22;50313;52.894;6.492;2023-11-21T10:32:30;8.90;99.90
60309;DHT22;50313;52.894;6.492;2023-11-21T10:35:01;8.90;99.90
60309;DHT22;50313;52.894;6.492;2023-11-21T10:37:32;8.90;99.90
60309;DHT22;50313;52.894;6.492;2023-11-21T10:39:58;8.90;99.90
60309;DHT22;50313;52.894;6.492;2023-11-21T10:42:24;8.90;99.90
60309;DHT22;50313;52.894;6.492;2023-11-21T10:44:50;8.90;99.90
60309;DHT22;50313;52.894;6.492;2023-11-21T10:47:17;8.90;99.90
60309;DHT22;50313;52.894;6.492;2023-11-21T10:49:44;8.80;99.90
60309;DHT22;50313;52.894;6.492;2023-11-21T10:52:13;8.80;99.90
60309;DHT22;50313;52.894;6.492;2023-11-21T10:54:43;8.90;99.90
60309;DHT22;50313;52.894;6.492;2023-11-21T10:57:10;8.90;99.90
60309;DHT22;50313;52.894;6.492;2023-11-21T10:59:36;8.90;99.90
60309;DHT22;50313;52.894;6.492;2023-11-21T11:02:17;8.90;99.90
60309;DHT22;50313;52.894;6.492;2023-11-21T11:04:48;8.80;99.90
60309;DHT22;50313;52.894;6.492;2023-11-21T11:07:14;8.90;99.90
60309;DHT22;50313;52.894;6.492;2023-11-21T11:09:42;8.90;99.90
60309;DHT22;50313;52.894;6.492;2023-11-21T11:12:10;8.90;99.90
60309;DHT22;50313;52.894;6.492;2023-11-21T11:14:36;8.80;99.90
60309;DHT22;50313;52.894;6.492;2023-11-21T11:17:02;8.80;99.90
60309;DHT22;50313;52.894;6.492;2023-11-21T11:19:31;8.90;99.90
60309;DHT22;50313;52.894;6.492;2023-11-21T11:30:05;9.00;99.90
60309;DHT22;50313;52.894;6.492;2023-11-21T11:35:17;9.00;99.90
60309;DHT22;50313;52.894;6.492;2023-11-21T11:37:45;9.00;99.90
60309;DHT22;50313;52.894;6.492;2023-11-21T11:40:13;9.00;99.90
60309;DHT22;50313;52.894;6.492;2023-11-21T11:42:58;8.90;99.90
60309;DHT22;50313;52.894;6.492;2023-11-21T11:45:34;8.90;99.90
60309;DHT22;50313;52.894;6.492;2023-11-21T11:48:07;9.00;99.90
60309;DHT22;50313;52.894;6.492;2023-11-21T11:50:33;9.00;99.90
60309;DHT22;50313;52.894;6.492;2023-11-21T11:53:15;9.00;99.90
60309;DHT22;50313;52.894;6.492;2023-11-21T11:55:41;9.00;99.90
60309;DHT22;50313;52.894;6.492;2023-11-21T11:58:07;9.00;99.90
60309;DHT22;50313;52.894;6.492;2023-11-21T12:00:34;9.00;99.90
60309;DHT22;50313;52.894;6.492;2023-11-21T12:03:04;8.90;99.90
60309;DHT22;50313;52.894;6.492;2023-11-21T12:05:34;8.90;99.90
60309;DHT22;50313;52.894;6.492;2023-11-21T12:08:10;8.90;99.90
60309;DHT22;50313;52.894;6.492;2023-11-21T12:10:38;8.90;99.90
60309;DHT22;50313;52.894;6.492;2023-11-21T12:13:10;8.80;99.90
60309;DHT22;50313;52.894;6.492;2023-11-21T12:15:38;8.90;99.90
60309;DHT22;50313;52.894;6.492;2023-11-21T12:18:05;8.80;99.90
60309;DHT22;50313;52.894;6.492;2023-11-21T12:20:31;8.80;99.90
60309;DHT22;50313;52.894;6.492;2023-11-21T12:22:59;8.80;99.90
60309;DHT22;50313;52.894;6.492;2023-11-21T12:25:26;8.80;99.90
60309;DHT22;50313;52.894;6.492;2023-11-21T12:27:55;8.90;99.90
60309;DHT22;50313;52.894;6.492;2023-11-21T12:30:23;9.00;99.90
60309;DHT22;50313;52.894;6.492;2023-11-21T12:32:51;9.00;99.90
60309;DHT22;50313;52.894;6.492;2023-11-21T12:35:18;9.10;99.90
60309;DHT22;50313;52.894;6.492;2023-11-21T12:37:45;9.20;99.90
60309;DHT22;50313;52.894;6.492;2023-11-21T12:40:13;9.20;99.90
60309;DHT22;50313;52.894;6.492;2023-11-21T12:42:45;9.10;99.90
60309;DHT22;50313;52.894;6.492;2023-11-21T12:47:44;9.00;99.90
60309;DHT22;50313;52.894;6.492;2023-11-21T12:50:10;9.00;99.90
60309;DHT22;50313;52.894;6.492;2023-11-21T12:52:46;9.00;99.90
60309;DHT22;50313;52.894;6.492;2023-11-21T12:55:19;9.10;99.90
60309;DHT22;50313;52.894;6.492;2023-11-21T12:57:52;9.10;99.90
60309;DHT22;50313;52.894;6.492;2023-11-21T13:00:27;9.20;99.90
60309;DHT22;50313;52.894;6.492;2023-11-21T13:02:54;9.10;99.90
60309;DHT22;50313;52.894;6.492;2023-11-21T13:05:28;9.10;99.90
60309;DHT22;50313;52.894;6.492;2023-11-21T13:08:02;9.10;99.90
60309;DHT22;50313;52.894;6.492;2023-11-21T13:10:32;9.10;99.90
60309;DHT22;50313;52.894;6.492;2023-11-21T13:13:02;9.20;99.90
60309;DHT22;50313;52.894;6.492;2023-11-21T13:15:31;9.20;99.90
60309;DHT22;50313;52.894;6.492;2023-11-21T13:17:58;9.10;99.90
60309;DHT22;50313;52.894;6.492;2023-11-21T13:20:25;9.10;99.90
60309;DHT22;50313;52.894;6.492;2023-11-21T13:22:56;9.10;99.90
60309;DHT22;50313;52.894;6.492;2023-11-21T13:25:29;9.10;99.90
60309;DHT22;50313;52.894;6.492;2023-11-21T13:27:55;9.00;99.90
60309;DHT22;50313;52.894;6.492;2023-11-21T13:30:21;8.90;99.90
60309;DHT22;50313;52.894;6.492;2023-11-21T13:32:55;8.90;99.90
60309;DHT22;50313;52.894;6.492;2023-11-21T13:35:29;8.90;99.90
60309;DHT22;50313;52.894;6.492;2023-11-21T13:38:08;8.90;99.90
60309;DHT22;50313;52.894;6.492;2023-11-21T13:40:35;8.80;99.90
60309;DHT22;50313;52.894;6.492;2023-11-21T13:43:09;8.90;99.90
60309;DHT22;50313;52.894;6.492;2023-11-21T13:45:42;9.00;99.90
60309;DHT22;50313;52.894;6.492;2023-11-21T13:48:09;8.80;99.90
60309;DHT22;50313;52.894;6.492;2023-11-21T13:50:43;9.00;99.90
60309;DHT22;50313;52.894;6.492;2023-11-21T13:53:25;9.60;99.90
60309;DHT22;50313;52.894;6.492;2023-11-21T13:55:51;10.10;99.90
60309;DHT22;50313;52.894;6.492;2023-11-21T13:58:20;10.40;47.20
60309;DHT22;50313;52.894;6.492;2023-11-21T14:00:58;10.70;1.00
60309;DHT22;50313;52.894;6.492;2023-11-21T14:03:24;11.10;99.90
60309;DHT22;50313;52.894;6.492;2023-11-21T14:05:58;11.10;99.90
60309;DHT22;50313;52.894;6.492;2023-11-21T14:08:26;10.80;99.90
60309;DHT22;50313;52.894;6.492;2023-11-21T14:10:57;10.60;99.90
60309;DHT22;50313;52.894;6.492;2023-11-21T14:13:25;10.50;1.00
60309;DHT22;50313;52.894;6.492;2023-11-21T14:15:51;10.30;1.00
60309;DHT22;50313;52.894;6.492;2023-11-21T14:18:26;10.20;52.60
60309;DHT22;50313;52.894;6.492;2023-11-21T14:21:16;9.90;80.80
60309;DHT22;50313;52.894;6.492;2023-11-21T14:23:42;9.60;99.90
60309;DHT22;50313;52.894;6.492;2023-11-21T14:26:08;9.40;99.90
60309;DHT22;50313;52.894;6.492;2023-11-21T14:28:34;9.30;99.90
60309;DHT22;50313;52.894;6.492;2023-11-21T14:31:01;9.10;99.90
60309;DHT22;50313;52.894;6.492;2023-11-21T14:33:28;9.00;99.90
60309;DHT22;50313;52.894;6.492;2023-11-21T14:35:54;8.90;99.90
60309;DHT22;50313;52.894;6.492;2023-11-21T14:38:20;8.80;99.90
60309;DHT22;50313;52.894;6.492;2023-11-21T14:40:46;8.70;99.90
60309;DHT22;50313;52.894;6.492;2023-11-21T14:43:13;8.60;99.90
60309;DHT22;50313;52.894;6.492;2023-11-21T14:45:39;8.60;99.90
60309;DHT22;50313;52.894;6.492;2023-11-21T14:48:04;8.60;99.90
60309;DHT22;50313;52.894;6.492;2023-11-21T14:50:30;8.60;99.90
60309;DHT22;50313;52.894;6.492;2023-11-21T14:53:05;8.50;99.90
60309;DHT22;50313;52.894;6.492;2023-11-21T14:55:33;8.50;99.90
60309;DHT22;50313;52.894;6.492;2023-11-21T14:58:07;8.50;99.90
60309;DHT22;50313;52.894;6.492;2023-11-21T15:00:37;8.40;99.90
60309;DHT22;50313;52.894;6.492;2023-11-21T15:03:10;8.40;99.90
60309;DHT22;50313;52.894;6.492;2023-11-21T15:05:43;8.30;99.90
60309;DHT22;50313;52.894;6.492;2023-11-21T15:08:09;8.30;99.90
60309;DHT22;50313;52.894;6.492;2023-11-21T15:10:51;8.30;99.90
60309;DHT22;50313;52.894;6.492;2023-11-21T15:13:21;8.20;99.90
60309;DHT22;50313;52.894;6.492;2023-11-21T15:15:53;8.20;99.90
60309;DHT22;50313;52.894;6.492;2023-11-21T15:18:21;8.20;99.90
60309;DHT22;50313;52.894;6.492;2023-11-21T15:20:47;8.20;99.90
60309;DHT22;50313;52.894;6.492;2023-11-21T15:23:13;8.20;99.90
60309;DHT22;50313;52.894;6.492;2023-11-21T15:25:39;8.10;99.90
60309;DHT22;50313;52.894;6.492;2023-11-21T15:28:05;8.20;99.90
60309;DHT22;50313;52.894;6.492;2023-11-21T15:30:31;8.10;99.90
60309;DHT22;50313;52.894;6.492;2023-11-21T15:33:00;8.10;99.90
60309;DHT22;50313;52.894;6.492;2023-11-21T15:35:26;8.10;99.90
60309;DHT22;50313;52.894;6.492;2023-11-21T15:37:54;8.20;99.90
60309;DHT22;50313;52.894;6.492;2023-11-21T15:40:23;8.10;99.90
60309;DHT22;50313;52.894;6.492;2023-11-21T15:42:49;8.10;99.90
60309;DHT22;50313;52.894;6.492;2023-11-21T15:45:15;8.10;99.90
60309;DHT22;50313;52.894;6.492;2023-11-21T15:47:44;8.10;99.90
60309;DHT22;50313;52.894;6.492;2023-11-21T15:50:10;8.00;99.90
60309;DHT22;50313;52.894;6.492;2023-11-21T15:52:36;8.00;99.90
60309;DHT22;50313;52.894;6.492;2023-11-21T15:55:02;8.00;99.90
60309;DHT22;50313;52.894;6.492;2023-11-21T15:57:28;8.00;99.90
60309;DHT22;50313;52.894;6.492;2023-11-21T15:59:54;8.00;99.90
60309;DHT22;50313;52.894;6.492;2023-11-21T16:02:19;7.90;99.90
60309;DHT22;50313;52.894;6.492;2023-11-21T16:04:45;7.90;99.90